sensor_id;sensor_type;location;lat;lon;timestamp;P1;durP1;ratioP1;P2;durP2;ratioP2
58643;SDS011;44411;49.994;8.660;2023-03-16T00:00:17;19.95;;;11.70;;
58643;SDS011;44411;49.994;8.660;2023-03-16T00:02:42;14.35;;;9.13;;
58643;SDS011;44411;49.994;8.660;2023-03-16T00:05:08;14.43;;;7.07;;
58643;SDS011;44411;49.994;8.660;2023-03-16T00:07:34;12.32;;;7.90;;
58643;SDS011;44411;49.994;8.660;2023-03-16T00:09:59;12.57;;;7.88;;
58643;SDS011;44411;49.994;8.660;2023-03-16T00:12:24;13.33;;;8.23;;
58643;SDS011;44411;49.994;8.660;2023-03-16T00:14:50;12.77;;;8.43;;
58643;SDS011;44411;49.994;8.660;2023-03-16T00:17:16;15.68;;;7.72;;
58643;SDS011;44411;49.994;8.660;2023-03-16T00:22:11;14.05;;;8.02;;
58643;SDS011;44411;49.994;8.660;2023-03-16T00:24:38;14.50;;;8.75;;
58643;SDS011;44411;49.994;8.660;2023-03-16T00:27:03;15.10;;;8.60;;
58643;SDS011;44411;49.994;8.660;2023-03-16T00:29:29;13.50;;;8.43;;
58643;SDS011;44411;49.994;8.660;2023-03-16T00:31:58;12.35;;;9.27;;
58643;SDS011;44411;49.994;8.660;2023-03-16T00:34:23;15.53;;;8.90;;
58643;SDS011;44411;49.994;8.660;2023-03-16T00:36:49;13.83;;;10.33;;
58643;SDS011;44411;49.994;8.660;2023-03-16T00:39:14;14.90;;;8.70;;
58643;SDS011;44411;49.994;8.660;2023-03-16T00:41:39;16.30;;;9.30;;
58643;SDS011;44411;49.994;8.660;2023-03-16T00:44:04;13.40;;;8.73;;
58643;SDS011;44411;49.994;8.660;2023-03-16T00:46:30;14.25;;;8.80;;
58643;SDS011;44411;49.994;8.660;2023-03-16T00:48:55;14.02;;;10.07;;
58643;SDS011;44411;49.994;8.660;2023-03-16T00:51:20;17.00;;;10.18;;
58643;SDS011;44411;49.994;8.660;2023-03-16T00:53:47;12.55;;;8.60;;
58643;SDS011;44411;49.994;8.660;2023-03-16T00:56:12;14.82;;;9.15;;
58643;SDS011;44411;49.994;8.660;2023-03-16T00:58:38;14.90;;;8.60;;
58643;SDS011;44411;49.994;8.660;2023-03-16T01:01:05;12.65;;;9.23;;
58643;SDS011;44411;49.994;8.660;2023-03-16T01:03:30;14.45;;;10.18;;
58643;SDS011;44411;49.994;8.660;2023-03-16T01:05:55;14.40;;;10.13;;
58643;SDS011;44411;49.994;8.660;2023-03-16T01:08:24;15.50;;;9.88;;
58643;SDS011;44411;49.994;8.660;2023-03-16T01:10:51;18.55;;;9.70;;
58643;SDS011;44411;49.994;8.660;2023-03-16T01:13:17;14.27;;;9.90;;
58643;SDS011;44411;49.994;8.660;2023-03-16T01:15:42;16.00;;;10.30;;
58643;SDS011;44411;49.994;8.660;2023-03-16T01:18:09;16.23;;;11.05;;
58643;SDS011;44411;49.994;8.660;2023-03-16T01:20:37;14.52;;;9.65;;
58643;SDS011;44411;49.994;8.660;2023-03-16T01:23:02;15.30;;;10.07;;
58643;SDS011;44411;49.994;8.660;2023-03-16T01:25:27;15.55;;;10.57;;
58643;SDS011;44411;49.994;8.660;2023-03-16T01:27:53;16.15;;;11.18;;
58643;SDS011;44411;49.994;8.660;2023-03-16T01:30:18;16.20;;;10.67;;
58643;SDS011;44411;49.994;8.660;2023-03-16T01:32:43;15.55;;;10.40;;
58643;SDS011;44411;49.994;8.660;2023-03-16T01:35:08;16.20;;;10.60;;
58643;SDS011;44411;49.994;8.660;2023-03-16T01:37:34;14.93;;;10.07;;
58643;SDS011;44411;49.994;8.660;2023-03-16T01:39:59;13.07;;;9.93;;
58643;SDS011;44411;49.994;8.660;2023-03-16T01:42:24;16.20;;;10.13;;
58643;SDS011;44411;49.994;8.660;2023-03-16T01:47:14;15.10;;;10.33;;
58643;SDS011;44411;49.994;8.660;2023-03-16T01:49:40;17.30;;;10.10;;
58643;SDS011;44411;49.994;8.660;2023-03-16T01:52:06;15.43;;;9.98;;
58643;SDS011;44411;49.994;8.660;2023-03-16T01:54:34;14.10;;;9.75;;
58643;SDS011;44411;49.994;8.660;2023-03-16T01:59:27;15.27;;;9.93;;
58643;SDS011;44411;49.994;8.660;2023-03-16T02:01:53;15.60;;;10.13;;
58643;SDS011;44411;49.994;8.660;2023-03-16T02:04:24;17.63;;;10.85;;
58643;SDS011;44411;49.994;8.660;2023-03-16T02:06:52;16.40;;;10.93;;
58643;SDS011;44411;49.994;8.660;2023-03-16T02:09:18;16.92;;;11.05;;
58643;SDS011;44411;49.994;8.660;2023-03-16T02:11:43;16.10;;;10.52;;
58643;SDS011;44411;49.994;8.660;2023-03-16T02:14:09;16.75;;;10.85;;
58643;SDS011;44411;49.994;8.660;2023-03-16T02:16:35;17.30;;;10.00;;
58643;SDS011;44411;49.994;8.660;2023-03-16T02:19:00;16.60;;;11.40;;
58643;SDS011;44411;49.994;8.660;2023-03-16T02:24:09;17.25;;;10.70;;
58643;SDS011;44411;49.994;8.660;2023-03-16T02:31:40;16.83;;;11.40;;
58643;SDS011;44411;49.994;8.660;2023-03-16T02:34:05;19.20;;;12.07;;
58643;SDS011;44411;49.994;8.660;2023-03-16T02:36:30;15.55;;;10.60;;
58643;SDS011;44411;49.994;8.660;2023-03-16T02:38:57;18.48;;;11.05;;
58643;SDS011;44411;49.994;8.660;2023-03-16T02:41:22;16.20;;;10.77;;
58643;SDS011;44411;49.994;8.660;2023-03-16T02:43:52;17.60;;;12.18;;
58643;SDS011;44411;49.994;8.660;2023-03-16T02:46:20;16.92;;;10.73;;
58643;SDS011;44411;49.994;8.660;2023-03-16T06:01:42;23.00;;;12.35;;
58643;SDS011;44411;49.994;8.660;2023-03-16T06:04:07;20.02;;;11.85;;
58643;SDS011;44411;49.994;8.660;2023-03-16T06:06:32;18.98;;;11.93;;
58643;SDS011;44411;49.994;8.660;2023-03-16T06:08:58;22.00;;;12.32;;
58643;SDS011;44411;49.994;8.660;2023-03-16T06:11:23;20.38;;;12.18;;
58643;SDS011;44411;49.994;8.660;2023-03-16T06:13:48;23.50;;;11.98;;
58643;SDS011;44411;49.994;8.660;2023-03-16T06:16:14;20.50;;;13.13;;
58643;SDS011;44411;49.994;8.660;2023-03-16T06:18:40;19.58;;;12.63;;
58643;SDS011;44411;49.994;8.660;2023-03-16T06:21:06;17.90;;;11.95;;
58643;SDS011;44411;49.994;8.660;2023-03-16T06:23:31;20.35;;;12.85;;
58643;SDS011;44411;49.994;8.660;2023-03-16T06:25:57;18.42;;;11.88;;
58643;SDS011;44411;49.994;8.660;2023-03-16T06:28:24;17.20;;;11.55;;
58643;SDS011;44411;49.994;8.660;2023-03-16T06:30:53;20.17;;;12.43;;
58643;SDS011;44411;49.994;8.660;2023-03-16T06:33:19;18.83;;;11.40;;
58643;SDS011;44411;49.994;8.660;2023-03-16T06:35:44;18.77;;;11.98;;
58643;SDS011;44411;49.994;8.660;2023-03-16T06:38:10;19.63;;;11.18;;
58643;SDS011;44411;49.994;8.660;2023-03-16T06:40:35;21.58;;;13.25;;
58643;SDS011;44411;49.994;8.660;2023-03-16T06:43:00;19.25;;;12.20;;
58643;SDS011;44411;49.994;8.660;2023-03-16T06:45:26;21.95;;;12.07;;
58643;SDS011;44411;49.994;8.660;2023-03-16T06:47:51;19.08;;;12.40;;
58643;SDS011;44411;49.994;8.660;2023-03-16T06:50:16;19.08;;;11.38;;
58643;SDS011;44411;49.994;8.660;2023-03-16T06:52:41;17.75;;;11.32;;
58643;SDS011;44411;49.994;8.660;2023-03-16T06:55:07;16.83;;;11.13;;
58643;SDS011;44411;49.994;8.660;2023-03-16T06:57:32;16.73;;;11.73;;
58643;SDS011;44411;49.994;8.660;2023-03-16T06:59:57;15.90;;;10.40;;
58643;SDS011;44411;49.994;8.660;2023-03-16T07:02:23;16.67;;;10.80;;
58643;SDS011;44411;49.994;8.660;2023-03-16T07:04:48;22.63;;;11.93;;
58643;SDS011;44411;49.994;8.660;2023-03-16T07:07:13;16.85;;;11.57;;
58643;SDS011;44411;49.994;8.660;2023-03-16T07:09:39;17.30;;;12.20;;
58643;SDS011;44411;49.994;8.660;2023-03-16T07:12:04;17.38;;;11.90;;
58643;SDS011;44411;49.994;8.660;2023-03-16T07:14:29;19.02;;;11.52;;
58643;SDS011;44411;49.994;8.660;2023-03-16T07:16:55;16.58;;;11.10;;
58643;SDS011;44411;49.994;8.660;2023-03-16T07:19:20;16.05;;;11.23;;
58643;SDS011;44411;49.994;8.660;2023-03-16T07:21:47;18.58;;;10.90;;
58643;SDS011;44411;49.994;8.660;2023-03-16T07:24:12;16.25;;;10.43;;
58643;SDS011;44411;49.994;8.660;2023-03-16T07:26:38;14.17;;;10.03;;
58643;SDS011;44411;49.994;8.660;2023-03-16T07:29:03;15.90;;;11.15;;
58643;SDS011;44411;49.994;8.660;2023-03-16T07:31:31;15.55;;;10.75;;
58643;SDS011;44411;49.994;8.660;2023-03-16T07:33:57;14.27;;;10.02;;
58643;SDS011;44411;49.994;8.660;2023-03-16T07:36:22;15.70;;;9.60;;
58643;SDS011;44411;49.994;8.660;2023-03-16T07:38:47;13.40;;;10.27;;
58643;SDS011;44411;49.994;8.660;2023-03-16T07:41:13;15.45;;;9.57;;
58643;SDS011;44411;49.994;8.660;2023-03-16T07:43:38;13.88;;;10.55;;
58643;SDS011;44411;49.994;8.660;2023-03-16T07:46:03;13.77;;;9.38;;
58643;SDS011;44411;49.994;8.660;2023-03-16T07:48:29;15.38;;;9.90;;
58643;SDS011;44411;49.994;8.660;2023-03-16T07:50:54;14.90;;;9.88;;
58643;SDS011;44411;49.994;8.660;2023-03-16T07:53:19;15.27;;;9.57;;
58643;SDS011;44411;49.994;8.660;2023-03-16T07:58:14;12.18;;;8.77;;
58643;SDS011;44411;49.994;8.660;2023-03-16T08:00:39;12.68;;;9.57;;
58643;SDS011;44411;49.994;8.660;2023-03-16T08:03:04;15.35;;;9.07;;
58643;SDS011;44411;49.994;8.660;2023-03-16T08:05:30;11.65;;;8.40;;
58643;SDS011;44411;49.994;8.660;2023-03-16T08:07:58;14.50;;;8.70;;
58643;SDS011;44411;49.994;8.660;2023-03-16T08:10:25;13.27;;;8.75;;
58643;SDS011;44411;49.994;8.660;2023-03-16T08:12:50;10.95;;;8.35;;
58643;SDS011;44411;49.994;8.660;2023-03-16T08:15:15;12.65;;;9.20;;
58643;SDS011;44411;49.994;8.660;2023-03-16T08:17:41;13.50;;;9.07;;
58643;SDS011;44411;49.994;8.660;2023-03-16T08:20:06;12.63;;;8.18;;
58643;SDS011;44411;49.994;8.660;2023-03-16T08:22:34;12.20;;;8.43;;
58643;SDS011;44411;49.994;8.660;2023-03-16T08:25:01;11.30;;;7.90;;
58643;SDS011;44411;49.994;8.660;2023-03-16T08:27:26;10.13;;;7.53;;
58643;SDS011;44411;49.994;8.660;2023-03-16T08:29:53;14.45;;;8.82;;
58643;SDS011;44411;49.994;8.660;2023-03-16T08:32:19;9.98;;;7.97;;
58643;SDS011;44411;49.994;8.660;2023-03-16T08:34:44;11.70;;;7.80;;
58643;SDS011;44411;49.994;8.660;2023-03-16T08:37:10;9.88;;;7.18;;
58643;SDS011;44411;49.994;8.660;2023-03-16T08:39:35;11.50;;;8.35;;
58643;SDS011;44411;49.994;8.660;2023-03-16T08:42:00;11.10;;;8.00;;
58643;SDS011;44411;49.994;8.660;2023-03-16T08:44:26;12.52;;;8.07;;
58643;SDS011;44411;49.994;8.660;2023-03-16T08:46:51;11.80;;;8.13;;
58643;SDS011;44411;49.994;8.660;2023-03-16T08:49:17;11.07;;;7.50;;
58643;SDS011;44411;49.994;8.660;2023-03-16T08:51:44;9.85;;;7.20;;
58643;SDS011;44411;49.994;8.660;2023-03-16T08:54:10;10.15;;;7.47;;
58643;SDS011;44411;49.994;8.660;2023-03-16T08:56:36;11.23;;;8.63;;
58643;SDS011;44411;49.994;8.660;2023-03-16T08:59:01;10.85;;;7.13;;
58643;SDS011;44411;49.994;8.660;2023-03-16T09:01:27;11.23;;;6.97;;
58643;SDS011;44411;49.994;8.660;2023-03-16T09:03:53;10.18;;;7.40;;
58643;SDS011;44411;49.994;8.660;2023-03-16T09:06:18;9.95;;;6.93;;
58643;SDS011;44411;49.994;8.660;2023-03-16T09:08:44;9.63;;;7.05;;
58643;SDS011;44411;49.994;8.660;2023-03-16T09:11:10;11.23;;;8.15;;
58643;SDS011;44411;49.994;8.660;2023-03-16T09:13:37;8.73;;;6.88;;
58643;SDS011;44411;49.994;8.660;2023-03-16T09:16:02;10.45;;;6.72;;
58643;SDS011;44411;49.994;8.660;2023-03-16T09:18:28;9.02;;;7.35;;
58643;SDS011;44411;49.994;8.660;2023-03-16T09:20:57;9.65;;;6.70;;
58643;SDS011;44411;49.994;8.660;2023-03-16T09:23:23;10.88;;;7.03;;
58643;SDS011;44411;49.994;8.660;2023-03-16T09:25:48;9.93;;;7.18;;
58643;SDS011;44411;49.994;8.660;2023-03-16T09:28:15;10.15;;;7.03;;
58643;SDS011;44411;49.994;8.660;2023-03-16T09:30:41;9.90;;;7.20;;
58643;SDS011;44411;49.994;8.660;2023-03-16T09:33:06;9.10;;;6.78;;
58643;SDS011;44411;49.994;8.660;2023-03-16T09:35:32;8.07;;;6.50;;
58643;SDS011;44411;49.994;8.660;2023-03-16T09:37:57;7.97;;;5.90;;
58643;SDS011;44411;49.994;8.660;2023-03-16T09:40:23;8.00;;;5.87;;
58643;SDS011;44411;49.994;8.660;2023-03-16T09:42:56;8.32;;;6.40;;
58643;SDS011;44411;49.994;8.660;2023-03-16T09:45:23;8.45;;;5.82;;
58643;SDS011;44411;49.994;8.660;2023-03-16T09:47:51;9.05;;;5.97;;
58643;SDS011;44411;49.994;8.660;2023-03-16T09:50:24;8.30;;;5.95;;
58643;SDS011;44411;49.994;8.660;2023-03-16T09:55:30;8.50;;;6.20;;
58643;SDS011;44411;49.994;8.660;2023-03-16T09:57:56;8.75;;;6.28;;
58643;SDS011;44411;49.994;8.660;2023-03-16T10:00:25;9.25;;;6.43;;
58643;SDS011;44411;49.994;8.660;2023-03-16T10:05:19;8.73;;;6.15;;
58643;SDS011;44411;49.994;8.660;2023-03-16T10:07:48;8.35;;;6.05;;
58643;SDS011;44411;49.994;8.660;2023-03-16T10:10:25;9.02;;;6.80;;
58643;SDS011;44411;49.994;8.660;2023-03-16T10:12:56;10.00;;;6.47;;
58643;SDS011;44411;49.994;8.660;2023-03-16T10:15:24;8.23;;;6.57;;
58643;SDS011;44411;49.994;8.660;2023-03-16T10:20:56;8.18;;;6.10;;
58643;SDS011;44411;49.994;8.660;2023-03-16T10:23:23;9.45;;;6.10;;
58643;SDS011;44411;49.994;8.660;2023-03-16T10:25:55;9.23;;;6.10;;
58643;SDS011;44411;49.994;8.660;2023-03-16T10:28:22;8.65;;;5.68;;
58643;SDS011;44411;49.994;8.660;2023-03-16T10:30:48;7.30;;;5.90;;
58643;SDS011;44411;49.994;8.660;2023-03-16T10:43:54;7.75;;;6.05;;
58643;SDS011;44411;49.994;8.660;2023-03-16T10:46:20;7.28;;;5.78;;
58643;SDS011;44411;49.994;8.660;2023-03-16T10:48:52;7.78;;;5.75;;
58643;SDS011;44411;49.994;8.660;2023-03-16T10:51:19;7.57;;;5.80;;
58643;SDS011;44411;49.994;8.660;2023-03-16T10:53:46;8.13;;;5.80;;
58643;SDS011;44411;49.994;8.660;2023-03-16T10:56:21;9.20;;;6.22;;
58643;SDS011;44411;49.994;8.660;2023-03-16T10:58:46;9.73;;;6.82;;
58643;SDS011;44411;49.994;8.660;2023-03-16T11:01:20;8.85;;;7.13;;
58643;SDS011;44411;49.994;8.660;2023-03-16T11:03:50;9.15;;;6.43;;
58643;SDS011;44411;49.994;8.660;2023-03-16T11:06:18;7.45;;;6.00;;
58643;SDS011;44411;49.994;8.660;2023-03-16T11:08:44;8.40;;;6.55;;
58643;SDS011;44411;49.994;8.660;2023-03-16T11:11:45;6.68;;;5.85;;
58643;SDS011;44411;49.994;8.660;2023-03-16T11:14:09;7.15;;;6.03;;
58643;SDS011;44411;49.994;8.660;2023-03-16T11:26:55;8.03;;;6.30;;
58643;SDS011;44411;49.994;8.660;2023-03-16T11:32:19;10.02;;;6.95;;
58643;SDS011;44411;49.994;8.660;2023-03-16T11:34:46;8.43;;;5.97;;
58643;SDS011;44411;49.994;8.660;2023-03-16T11:42:13;9.20;;;6.53;;
58643;SDS011;44411;49.994;8.660;2023-03-16T11:44:42;8.82;;;6.35;;
58643;SDS011;44411;49.994;8.660;2023-03-16T12:00:26;7.95;;;6.40;;
58643;SDS011;44411;49.994;8.660;2023-03-16T12:11:10;7.78;;;5.78;;
58643;SDS011;44411;49.994;8.660;2023-03-16T12:18:57;6.25;;;5.28;;
58643;SDS011;44411;49.994;8.660;2023-03-16T12:23:51;7.72;;;5.60;;
58643;SDS011;44411;49.994;8.660;2023-03-16T12:26:18;7.88;;;5.45;;
58643;SDS011;44411;49.994;8.660;2023-03-16T12:28:44;7.95;;;6.45;;
58643;SDS011;44411;49.994;8.660;2023-03-16T12:31:15;8.75;;;6.10;;
58643;SDS011;44411;49.994;8.660;2023-03-16T12:41:58;7.65;;;6.18;;
58643;SDS011;44411;49.994;8.660;2023-03-16T12:46:56;7.72;;;6.07;;
58643;SDS011;44411;49.994;8.660;2023-03-16T12:49:23;11.18;;;5.95;;
58643;SDS011;44411;49.994;8.660;2023-03-16T12:51:59;8.15;;;6.50;;
58643;SDS011;44411;49.994;8.660;2023-03-16T12:54:24;9.77;;;6.93;;
58643;SDS011;44411;49.994;8.660;2023-03-16T12:56:52;9.15;;;5.72;;
58643;SDS011;44411;49.994;8.660;2023-03-16T12:59:19;7.93;;;6.30;;
58643;SDS011;44411;49.994;8.660;2023-03-16T13:01:48;8.60;;;5.97;;
58643;SDS011;44411;49.994;8.660;2023-03-16T13:04:15;7.97;;;6.30;;
58643;SDS011;44411;49.994;8.660;2023-03-16T13:06:49;9.40;;;5.80;;
58643;SDS011;44411;49.994;8.660;2023-03-16T13:09:19;7.57;;;5.88;;
58643;SDS011;44411;49.994;8.660;2023-03-16T13:11:47;9.60;;;6.47;;
58643;SDS011;44411;49.994;8.660;2023-03-16T13:14:36;8.82;;;6.43;;
58643;SDS011;44411;49.994;8.660;2023-03-16T13:17:26;8.70;;;5.97;;
58643;SDS011;44411;49.994;8.660;2023-03-16T13:20:04;8.55;;;6.55;;
58643;SDS011;44411;49.994;8.660;2023-03-16T13:22:44;8.75;;;6.18;;
58643;SDS011;44411;49.994;8.660;2023-03-16T13:27:35;9.43;;;6.60;;
58643;SDS011;44411;49.994;8.660;2023-03-16T13:30:15;7.28;;;6.38;;
58643;SDS011;44411;49.994;8.660;2023-03-16T13:32:41;7.90;;;6.00;;
58643;SDS011;44411;49.994;8.660;2023-03-16T13:35:06;7.47;;;5.82;;
58643;SDS011;44411;49.994;8.660;2023-03-16T13:37:33;9.45;;;6.70;;
58643;SDS011;44411;49.994;8.660;2023-03-16T13:39:59;8.30;;;6.60;;
58643;SDS011;44411;49.994;8.660;2023-03-16T13:42:28;7.80;;;5.72;;
58643;SDS011;44411;49.994;8.660;2023-03-16T13:44:57;8.52;;;6.10;;
58643;SDS011;44411;49.994;8.660;2023-03-16T13:47:24;8.95;;;6.95;;
58643;SDS011;44411;49.994;8.660;2023-03-16T13:49:54;10.52;;;6.70;;
58643;SDS011;44411;49.994;8.660;2023-03-16T13:52:24;8.48;;;5.80;;
58643;SDS011;44411;49.994;8.660;2023-03-16T13:57:17;8.77;;;6.32;;
58643;SDS011;44411;49.994;8.660;2023-03-16T13:59:44;10.52;;;7.13;;
58643;SDS011;44411;49.994;8.660;2023-03-16T14:02:14;9.32;;;6.53;;
58643;SDS011;44411;49.994;8.660;2023-03-16T14:04:41;8.00;;;6.38;;
58643;SDS011;44411;49.994;8.660;2023-03-16T14:07:12;7.05;;;6.18;;
58643;SDS011;44411;49.994;8.660;2023-03-16T14:09:40;8.30;;;6.75;;
58643;SDS011;44411;49.994;8.660;2023-03-16T14:12:10;7.68;;;6.00;;
58643;SDS011;44411;49.994;8.660;2023-03-16T14:14:37;7.55;;;5.63;;
58643;SDS011;44411;49.994;8.660;2023-03-16T14:17:10;8.05;;;6.40;;
58643;SDS011;44411;49.994;8.660;2023-03-16T14:19:37;8.55;;;6.65;;
58643;SDS011;44411;49.994;8.660;2023-03-16T14:22:09;9.52;;;5.78;;
58643;SDS011;44411;49.994;8.660;2023-03-16T14:24:38;9.18;;;6.05;;
58643;SDS011;44411;49.994;8.660;2023-03-16T14:27:18;8.35;;;6.57;;
58643;SDS011;44411;49.994;8.660;2023-03-16T14:29:43;7.90;;;6.05;;
58643;SDS011;44411;49.994;8.660;2023-03-16T14:32:18;7.82;;;5.85;;
58643;SDS011;44411;49.994;8.660;2023-03-16T14:34:47;10.07;;;5.97;;
58643;SDS011;44411;49.994;8.660;2023-03-16T14:37:14;6.68;;;5.53;;
58643;SDS011;44411;49.994;8.660;2023-03-16T14:39:43;7.10;;;6.00;;
58643;SDS011;44411;49.994;8.660;2023-03-16T14:42:28;9.00;;;5.65;;
58643;SDS011;44411;49.994;8.660;2023-03-16T14:44:55;9.15;;;5.65;;
58643;SDS011;44411;49.994;8.660;2023-03-16T14:47:21;8.18;;;5.63;;
58643;SDS011;44411;49.994;8.660;2023-03-16T14:49:48;9.77;;;5.55;;
58643;SDS011;44411;49.994;8.660;2023-03-16T14:52:23;8.15;;;5.15;;
58643;SDS011;44411;49.994;8.660;2023-03-16T14:54:50;8.75;;;5.60;;
58643;SDS011;44411;49.994;8.660;2023-03-16T14:57:16;7.45;;;5.80;;
58643;SDS011;44411;49.994;8.660;2023-03-16T14:59:43;7.35;;;5.60;;
58643;SDS011;44411;49.994;8.660;2023-03-16T15:02:14;7.68;;;6.18;;
58643;SDS011;44411;49.994;8.660;2023-03-16T15:04:43;8.70;;;5.25;;
58643;SDS011;44411;49.994;8.660;2023-03-16T15:07:20;7.72;;;5.32;;
58643;SDS011;44411;49.994;8.660;2023-03-16T15:09:46;6.82;;;4.90;;
58643;SDS011;44411;49.994;8.660;2023-03-16T15:12:12;9.23;;;5.50;;
58643;SDS011;44411;49.994;8.660;2023-03-16T15:14:38;8.02;;;4.93;;
58643;SDS011;44411;49.994;8.660;2023-03-16T15:17:24;6.70;;;4.72;;
58643;SDS011;44411;49.994;8.660;2023-03-16T15:19:50;7.82;;;5.35;;
58643;SDS011;44411;49.994;8.660;2023-03-16T15:22:16;8.20;;;4.63;;
58643;SDS011;44411;49.994;8.660;2023-03-16T15:24:43;7.75;;;4.93;;
58643;SDS011;44411;49.994;8.660;2023-03-16T15:27:16;8.45;;;4.90;;
58643;SDS011;44411;49.994;8.660;2023-03-16T15:29:42;7.70;;;4.82;;
58643;SDS011;44411;49.994;8.660;2023-03-16T15:32:10;4.53;;;2.40;;
58643;SDS011;44411;49.994;8.660;2023-03-16T15:34:36;3.80;;;2.07;;
58643;SDS011;44411;49.994;8.660;2023-03-16T15:37:01;3.63;;;1.80;;
58643;SDS011;44411;49.994;8.660;2023-03-16T15:39:30;5.22;;;1.95;;
58643;SDS011;44411;49.994;8.660;2023-03-16T15:41:56;3.10;;;2.00;;
58643;SDS011;44411;49.994;8.660;2023-03-16T15:44:21;5.77;;;2.00;;
58643;SDS011;44411;49.994;8.660;2023-03-16T15:46:47;4.73;;;2.00;;
58643;SDS011;44411;49.994;8.660;2023-03-16T15:49:12;4.43;;;1.90;;
58643;SDS011;44411;49.994;8.660;2023-03-16T15:51:41;3.88;;;1.73;;
58643;SDS011;44411;49.994;8.660;2023-03-16T15:54:06;3.92;;;2.00;;
58643;SDS011;44411;49.994;8.660;2023-03-16T15:56:34;4.30;;;2.10;;
58643;SDS011;44411;49.994;8.660;2023-03-16T15:59:02;3.70;;;1.80;;
58643;SDS011;44411;49.994;8.660;2023-03-16T16:01:30;5.53;;;2.40;;
58643;SDS011;44411;49.994;8.660;2023-03-16T16:03:58;4.45;;;2.30;;
58643;SDS011;44411;49.994;8.660;2023-03-16T16:06:24;4.30;;;2.20;;
58643;SDS011;44411;49.994;8.660;2023-03-16T16:08:51;3.47;;;2.05;;
58643;SDS011;44411;49.994;8.660;2023-03-16T16:11:18;4.75;;;2.35;;
58643;SDS011;44411;49.994;8.660;2023-03-16T16:13:45;4.78;;;2.58;;
58643;SDS011;44411;49.994;8.660;2023-03-16T16:16:11;4.10;;;2.50;;
58643;SDS011;44411;49.994;8.660;2023-03-16T16:18:37;6.20;;;2.47;;
58643;SDS011;44411;49.994;8.660;2023-03-16T16:21:04;5.93;;;2.50;;
58643;SDS011;44411;49.994;8.660;2023-03-16T16:23:30;6.32;;;2.97;;
58643;SDS011;44411;49.994;8.660;2023-03-16T16:25:57;5.85;;;2.70;;
58643;SDS011;44411;49.994;8.660;2023-03-16T16:28:24;4.47;;;2.67;;
58643;SDS011;44411;49.994;8.660;2023-03-16T16:30:51;4.65;;;2.80;;
58643;SDS011;44411;49.994;8.660;2023-03-16T16:33:21;6.82;;;2.80;;
58643;SDS011;44411;49.994;8.660;2023-03-16T16:35:46;6.70;;;2.88;;
58643;SDS011;44411;49.994;8.660;2023-03-16T16:38:12;4.85;;;2.40;;
58643;SDS011;44411;49.994;8.660;2023-03-16T16:40:39;4.55;;;2.47;;
58643;SDS011;44411;49.994;8.660;2023-03-16T16:43:12;5.18;;;2.55;;
58643;SDS011;44411;49.994;8.660;2023-03-16T16:45:42;4.78;;;2.75;;
58643;SDS011;44411;49.994;8.660;2023-03-16T16:48:12;6.83;;;2.70;;
58643;SDS011;44411;49.994;8.660;2023-03-16T16:50:45;4.20;;;2.70;;
58643;SDS011;44411;49.994;8.660;2023-03-16T16:53:17;4.50;;;2.50;;
58643;SDS011;44411;49.994;8.660;2023-03-16T16:55:44;5.55;;;2.83;;
58643;SDS011;44411;49.994;8.660;2023-03-16T16:58:10;5.40;;;3.10;;
58643;SDS011;44411;49.994;8.660;2023-03-16T17:00:35;6.70;;;2.95;;
58643;SDS011;44411;49.994;8.660;2023-03-16T17:03:04;6.85;;;3.33;;
58643;SDS011;44411;49.994;8.660;2023-03-16T17:05:30;5.75;;;3.05;;
58643;SDS011;44411;49.994;8.660;2023-03-16T17:07:56;5.00;;;3.05;;
58643;SDS011;44411;49.994;8.660;2023-03-16T17:10:27;6.68;;;2.90;;
58643;SDS011;44411;49.994;8.660;2023-03-16T17:12:53;6.13;;;4.10;;
58643;SDS011;44411;49.994;8.660;2023-03-16T17:17:44;5.05;;;2.70;;
58643;SDS011;44411;49.994;8.660;2023-03-16T17:20:17;7.20;;;3.67;;
58643;SDS011;44411;49.994;8.660;2023-03-16T17:22:44;6.50;;;3.25;;
58643;SDS011;44411;49.994;8.660;2023-03-16T17:25:10;4.97;;;3.20;;
58643;SDS011;44411;49.994;8.660;2023-03-16T17:27:35;5.72;;;3.20;;
58643;SDS011;44411;49.994;8.660;2023-03-16T17:30:01;5.70;;;3.28;;
58643;SDS011;44411;49.994;8.660;2023-03-16T17:32:28;5.47;;;3.60;;
58643;SDS011;44411;49.994;8.660;2023-03-16T17:34:53;5.32;;;3.05;;
58643;SDS011;44411;49.994;8.660;2023-03-16T17:37:19;6.95;;;3.95;;
58643;SDS011;44411;49.994;8.660;2023-03-16T17:39:46;4.97;;;3.08;;
58643;SDS011;44411;49.994;8.660;2023-03-16T17:42:12;5.35;;;3.63;;
58643;SDS011;44411;49.994;8.660;2023-03-16T17:44:39;5.80;;;3.28;;
58643;SDS011;44411;49.994;8.660;2023-03-16T17:47:15;8.30;;;3.80;;
58643;SDS011;44411;49.994;8.660;2023-03-16T17:49:42;4.78;;;3.10;;
58643;SDS011;44411;49.994;8.660;2023-03-16T17:52:16;6.32;;;3.47;;
58643;SDS011;44411;49.994;8.660;2023-03-16T17:54:49;6.90;;;3.42;;
58643;SDS011;44411;49.994;8.660;2023-03-16T17:57:35;7.05;;;3.28;;
58643;SDS011;44411;49.994;8.660;2023-03-16T18:00:00;5.78;;;3.45;;
58643;SDS011;44411;49.994;8.660;2023-03-16T18:05:01;7.85;;;4.80;;
58643;SDS011;44411;49.994;8.660;2023-03-16T18:07:29;8.73;;;5.10;;
58643;SDS011;44411;49.994;8.660;2023-03-16T18:09:54;7.00;;;4.32;;
58643;SDS011;44411;49.994;8.660;2023-03-16T18:12:20;8.05;;;4.72;;
58643;SDS011;44411;49.994;8.660;2023-03-16T18:14:45;6.78;;;4.10;;
58643;SDS011;44411;49.994;8.660;2023-03-16T18:17:16;7.45;;;4.75;;
58643;SDS011;44411;49.994;8.660;2023-03-16T18:19:45;8.18;;;4.72;;
58643;SDS011;44411;49.994;8.660;2023-03-16T18:22:15;5.70;;;3.92;;
58643;SDS011;44411;49.994;8.660;2023-03-16T18:24:43;6.88;;;4.20;;
58643;SDS011;44411;49.994;8.660;2023-03-16T18:27:08;7.70;;;3.97;;
58643;SDS011;44411;49.994;8.660;2023-03-16T18:29:35;5.82;;;4.20;;
58643;SDS011;44411;49.994;8.660;2023-03-16T18:32:01;7.25;;;5.00;;
58643;SDS011;44411;49.994;8.660;2023-03-16T18:34:26;7.73;;;4.87;;
58643;SDS011;44411;49.994;8.660;2023-03-16T18:36:54;7.43;;;4.20;;
58643;SDS011;44411;49.994;8.660;2023-03-16T18:39:23;6.88;;;4.85;;
58643;SDS011;44411;49.994;8.660;2023-03-16T18:41:50;8.60;;;4.75;;
58643;SDS011;44411;49.994;8.660;2023-03-16T18:46:40;6.93;;;5.05;;
58643;SDS011;44411;49.994;8.660;2023-03-16T18:49:13;7.65;;;4.97;;
58643;SDS011;44411;49.994;8.660;2023-03-16T18:51:41;6.75;;;5.13;;
58643;SDS011;44411;49.994;8.660;2023-03-16T18:54:16;10.27;;;5.72;;
58643;SDS011;44411;49.994;8.660;2023-03-16T18:56:43;7.53;;;4.80;;
58643;SDS011;44411;49.994;8.660;2023-03-16T18:59:08;8.30;;;4.18;;
58643;SDS011;44411;49.994;8.660;2023-03-16T19:01:34;6.47;;;4.18;;
58643;SDS011;44411;49.994;8.660;2023-03-16T19:04:01;6.40;;;4.47;;
58643;SDS011;44411;49.994;8.660;2023-03-16T19:06:27;7.50;;;4.80;;
58643;SDS011;44411;49.994;8.660;2023-03-16T19:09:05;8.32;;;4.35;;
58643;SDS011;44411;49.994;8.660;2023-03-16T19:11:33;7.13;;;4.28;;
58643;SDS011;44411;49.994;8.660;2023-03-16T19:14:01;7.95;;;4.80;;
58643;SDS011;44411;49.994;8.660;2023-03-16T19:16:26;9.93;;;5.47;;
58643;SDS011;44411;49.994;8.660;2023-03-16T19:18:51;7.10;;;4.43;;
58643;SDS011;44411;49.994;8.660;2023-03-16T19:21:17;6.60;;;4.60;;
58643;SDS011;44411;49.994;8.660;2023-03-16T19:23:44;6.55;;;4.57;;
58643;SDS011;44411;49.994;8.660;2023-03-16T19:26:11;7.03;;;4.47;;
58643;SDS011;44411;49.994;8.660;2023-03-16T19:28:38;8.80;;;4.93;;
58643;SDS011;44411;49.994;8.660;2023-03-16T19:31:13;9.18;;;4.60;;
58643;SDS011;44411;49.994;8.660;2023-03-16T19:33:40;9.38;;;4.80;;
58643;SDS011;44411;49.994;8.660;2023-03-16T19:36:08;6.05;;;4.30;;
58643;SDS011;44411;49.994;8.660;2023-03-16T19:38:37;8.77;;;4.25;;
58643;SDS011;44411;49.994;8.660;2023-03-16T19:41:03;7.43;;;5.63;;